Terminal Aerodrome Forecast
Issued by NWS Cleveland, OH

Home | Current Version | Previous Version | Graphics & Text | Print | Product List | Glossary Off
Versions: 1 2 3 4 5 6 7 8 9 10 11 12

000
FTUS41 KCLE 272100 AAB
TAFTOL
TAF AMD
KTOL 272118Z 2721/2818 22012G22KT P6SM OVC008
     FM280000 23012G18KT 6SM -SHRA OVC008
     FM280900 29008KT P6SM VCSH OVC018
     FM281500 28010KT P6SM BKN025=

USA.gov is the U.S. government's official web portal to all federal, state and local government web resources and services.